CSP6 weather

Montreal / Aéroparc Île Perrot
Montréal, Quebec, Canada

Public forecast

Using degrees Celsius for public forecast. Weather courtesy of forecast.io.

Closest aviation weather report (METAR) to Montreal / Aéroparc Île Perrot

Closest report is Montreal / Pierre Elliott Trudeau International Airport, 9.0 nm (16.7 km) NE. Retrieved 2020/05/30 08:00 UTC (20 minutes ago):

CYUL 300800Z 22020G30KT 15SM SCT030 BKN063 BKN240 18/15 A2964 RMK SC4SC1CI1 SLP037 DENSITY ALT 900FT

Closest aviation forecast (TAF) to Montreal / Aéroparc Île Perrot

Closest forecast is Montreal / Pierre Elliott Trudeau International Airport, 9.0 nm (16.7 km) NE. Retrieved 2020/05/30 06:45 UTC (2 hours ago):

TAF CYUL 300540Z 3006/3106 21012G22KT P6SM BKN030 TEMPO 3006/3013 5SM -SHRA BR BKN020 BECMG 3008/3010 29015KT FM301300 29012G22KT P6SM BKN020 FM301500 27010KT P6SM BKN040 FM301700 24010KT P6SM SCT040 FM302100 25010KT P6SM BKN060 TEMPO 3022/3024 P6SM -SHRA FM310000 25012G22KT P6SM OVC030 TEMPO 3100/3102 VRB15G25KT 4SM SHRA BR OVC020 FM310200 30012G22KT P6SM BKN020 BECMG 3104/3106 31012KT RMK NXT FCST BY 300900Z